sensor_id;sensor_type;location;lat;lon;timestamp;temperature;humidity
360;DHT22;168;48.872;9.226;2023-04-24T00:02:00;12.50;97.00
360;DHT22;168;48.872;9.226;2023-04-24T00:04:29;12.60;96.80
360;DHT22;168;48.872;9.226;2023-04-24T00:06:57;12.60;96.80
360;DHT22;168;48.872;9.226;2023-04-24T00:09:26;12.60;96.80
360;DHT22;168;48.872;9.226;2023-04-24T00:11:53;12.70;96.90
360;DHT22;168;48.872;9.226;2023-04-24T00:14:22;12.70;96.70
360;DHT22;168;48.872;9.226;2023-04-24T00:16:49;12.80;96.70
360;DHT22;168;48.872;9.226;2023-04-24T00:19:16;12.80;96.60
360;DHT22;168;48.872;9.226;2023-04-24T00:21:48;12.80;96.50
360;DHT22;168;48.872;9.226;2023-04-24T00:24:16;12.90;96.20
360;DHT22;168;48.872;9.226;2023-04-24T00:26:44;13.00;96.00
360;DHT22;168;48.872;9.226;2023-04-24T00:29:11;12.90;96.00
360;DHT22;168;48.872;9.226;2023-04-24T00:31:39;12.90;95.80
360;DHT22;168;48.872;9.226;2023-04-24T00:34:06;13.00;95.90
360;DHT22;168;48.872;9.226;2023-04-24T00:36:34;13.10;95.00
360;DHT22;168;48.872;9.226;2023-04-24T00:39:05;13.10;95.00
360;DHT22;168;48.872;9.226;2023-04-24T00:41:34;13.10;94.90
360;DHT22;168;48.872;9.226;2023-04-24T00:44:02;13.10;94.90
360;DHT22;168;48.872;9.226;2023-04-24T00:46:30;13.10;94.80
360;DHT22;168;48.872;9.226;2023-04-24T00:48:59;13.10;94.80
360;DHT22;168;48.872;9.226;2023-04-24T00:51:26;13.00;95.00
360;DHT22;168;48.872;9.226;2023-04-24T00:53:54;13.00;95.20
360;DHT22;168;48.872;9.226;2023-04-24T00:56:23;13.00;95.00
360;DHT22;168;48.872;9.226;2023-04-24T00:58:51;13.10;95.10
360;DHT22;168;48.872;9.226;2023-04-24T01:01:19;13.10;95.20
360;DHT22;168;48.872;9.226;2023-04-24T01:03:49;13.10;95.20
360;DHT22;168;48.872;9.226;2023-04-24T01:06:18;13.20;95.00
360;DHT22;168;48.872;9.226;2023-04-24T01:08:46;13.20;94.80
360;DHT22;168;48.872;9.226;2023-04-24T01:11:14;13.30;94.70
360;DHT22;168;48.872;9.226;2023-04-24T01:13:43;13.30;94.60
360;DHT22;168;48.872;9.226;2023-04-24T01:16:11;13.30;94.60
360;DHT22;168;48.872;9.226;2023-04-24T01:18:38;13.30;94.60
360;DHT22;168;48.872;9.226;2023-04-24T01:21:06;13.30;94.70
360;DHT22;168;48.872;9.226;2023-04-24T01:23:36;13.40;94.60
360;DHT22;168;48.872;9.226;2023-04-24T01:26:04;13.30;94.30
360;DHT22;168;48.872;9.226;2023-04-24T01:28:31;13.30;94.80
360;DHT22;168;48.872;9.226;2023-04-24T01:30:59;13.20;94.90
360;DHT22;168;48.872;9.226;2023-04-24T01:33:26;13.20;94.70
360;DHT22;168;48.872;9.226;2023-04-24T01:35:54;13.20;94.90
360;DHT22;168;48.872;9.226;2023-04-24T01:38:21;13.10;95.00
360;DHT22;168;48.872;9.226;2023-04-24T01:40:51;13.20;94.90
360;DHT22;168;48.872;9.226;2023-04-24T01:43:19;13.10;94.90
360;DHT22;168;48.872;9.226;2023-04-24T01:45:46;13.10;94.90
360;DHT22;168;48.872;9.226;2023-04-24T01:48:14;13.10;95.20
360;DHT22;168;48.872;9.226;2023-04-24T01:50:41;13.10;95.10
360;DHT22;168;48.872;9.226;2023-04-24T01:53:09;13.10;95.20
360;DHT22;168;48.872;9.226;2023-04-24T01:55:37;13.10;95.20
360;DHT22;168;48.872;9.226;2023-04-24T01:58:06;13.00;95.40
360;DHT22;168;48.872;9.226;2023-04-24T02:00:33;13.00;95.40
360;DHT22;168;48.872;9.226;2023-04-24T02:03:01;12.90;95.60
360;DHT22;168;48.872;9.226;2023-04-24T02:05:28;12.90;95.50
360;DHT22;168;48.872;9.226;2023-04-24T02:07:56;12.80;95.60
360;DHT22;168;48.872;9.226;2023-04-24T02:10:23;12.80;95.70
360;DHT22;168;48.872;9.226;2023-04-24T02:12:51;12.80;95.70
360;DHT22;168;48.872;9.226;2023-04-24T02:15:20;12.80;95.80
360;DHT22;168;48.872;9.226;2023-04-24T02:17:47;12.70;95.80
360;DHT22;168;48.872;9.226;2023-04-24T02:20:14;12.70;96.00
360;DHT22;168;48.872;9.226;2023-04-24T02:22:43;12.70;96.10
360;DHT22;168;48.872;9.226;2023-04-24T02:25:10;12.70;96.20
360;DHT22;168;48.872;9.226;2023-04-24T02:27:38;12.70;96.20
360;DHT22;168;48.872;9.226;2023-04-24T02:30:06;12.80;96.00
360;DHT22;168;48.872;9.226;2023-04-24T02:32:35;12.70;96.10
360;DHT22;168;48.872;9.226;2023-04-24T02:35:03;12.70;96.30
360;DHT22;168;48.872;9.226;2023-04-24T02:37:31;12.80;96.20
360;DHT22;168;48.872;9.226;2023-04-24T02:39:58;12.80;96.20
360;DHT22;168;48.872;9.226;2023-04-24T02:42:25;13.00;96.10
360;DHT22;168;48.872;9.226;2023-04-24T02:44:53;13.00;95.80
360;DHT22;168;48.872;9.226;2023-04-24T02:47:20;13.10;96.00
360;DHT22;168;48.872;9.226;2023-04-24T02:49:49;13.00;96.80
360;DHT22;168;48.872;9.226;2023-04-24T02:52:16;12.90;96.60
360;DHT22;168;48.872;9.226;2023-04-24T02:54:43;12.80;97.00
360;DHT22;168;48.872;9.226;2023-04-24T02:57:11;12.70;96.90
360;DHT22;168;48.872;9.226;2023-04-24T02:59:38;12.70;97.00
360;DHT22;168;48.872;9.226;2023-04-24T03:02:05;12.70;97.10
360;DHT22;168;48.872;9.226;2023-04-24T03:04:33;12.70;97.00
360;DHT22;168;48.872;9.226;2023-04-24T03:07:01;12.70;97.00
360;DHT22;168;48.872;9.226;2023-04-24T03:09:29;12.70;97.00
360;DHT22;168;48.872;9.226;2023-04-24T03:11:56;12.70;97.10
360;DHT22;168;48.872;9.226;2023-04-24T03:14:24;12.70;97.00
360;DHT22;168;48.872;9.226;2023-04-24T03:16:51;12.60;97.00
360;DHT22;168;48.872;9.226;2023-04-24T03:19:18;12.60;97.00
360;DHT22;168;48.872;9.226;2023-04-24T03:21:46;12.50;97.00
360;DHT22;168;48.872;9.226;2023-04-24T03:24:14;12.50;96.90
360;DHT22;168;48.872;9.226;2023-04-24T03:26:42;12.50;96.90
360;DHT22;168;48.872;9.226;2023-04-24T03:29:09;12.50;97.00
360;DHT22;168;48.872;9.226;2023-04-24T03:31:36;12.40;96.90
360;DHT22;168;48.872;9.226;2023-04-24T03:34:04;12.30;96.80
360;DHT22;168;48.872;9.226;2023-04-24T03:36:31;12.30;96.70
360;DHT22;168;48.872;9.226;2023-04-24T03:38:59;12.30;96.80
360;DHT22;168;48.872;9.226;2023-04-24T03:41:28;12.30;96.70
360;DHT22;168;48.872;9.226;2023-04-24T03:43:56;12.30;96.80
360;DHT22;168;48.872;9.226;2023-04-24T03:46:23;12.20;96.70
360;DHT22;168;48.872;9.226;2023-04-24T03:48:50;12.20;96.70
360;DHT22;168;48.872;9.226;2023-04-24T03:51:18;12.10;96.70
360;DHT22;168;48.872;9.226;2023-04-24T03:53:45;12.10;96.80
360;DHT22;168;48.872;9.226;2023-04-24T03:56:13;12.10;96.80
360;DHT22;168;48.872;9.226;2023-04-24T03:58:42;12.10;96.80
360;DHT22;168;48.872;9.226;2023-04-24T04:01:09;12.10;96.70
360;DHT22;168;48.872;9.226;2023-04-24T04:03:37;12.10;96.70
360;DHT22;168;48.872;9.226;2023-04-24T04:06:05;12.10;96.70
360;DHT22;168;48.872;9.226;2023-04-24T04:08:32;12.10;96.80
360;DHT22;168;48.872;9.226;2023-04-24T04:11:00;12.00;96.60
360;DHT22;168;48.872;9.226;2023-04-24T04:13:28;12.00;96.40
360;DHT22;168;48.872;9.226;2023-04-24T04:15:59;11.90;96.30
360;DHT22;168;48.872;9.226;2023-04-24T04:18:27;11.90;96.10
360;DHT22;168;48.872;9.226;2023-04-24T04:20:54;12.00;96.30
360;DHT22;168;48.872;9.226;2023-04-24T04:23:22;12.00;96.50
360;DHT22;168;48.872;9.226;2023-04-24T04:25:50;12.10;96.40
360;DHT22;168;48.872;9.226;2023-04-24T04:28:17;12.10;95.70
360;DHT22;168;48.872;9.226;2023-04-24T04:30:46;12.30;95.20
360;DHT22;168;48.872;9.226;2023-04-24T04:33:15;12.10;95.70
360;DHT22;168;48.872;9.226;2023-04-24T04:35:42;11.40;95.10
360;DHT22;168;48.872;9.226;2023-04-24T04:38:10;11.00;92.60
360;DHT22;168;48.872;9.226;2023-04-24T04:40:37;10.90;90.20
360;DHT22;168;48.872;9.226;2023-04-24T04:43:05;10.80;90.90
360;DHT22;168;48.872;9.226;2023-04-24T04:45:48;10.70;89.80
360;DHT22;168;48.872;9.226;2023-04-24T04:48:32;10.60;89.00
360;DHT22;168;48.872;9.226;2023-04-24T04:51:00;10.60;88.70
360;DHT22;168;48.872;9.226;2023-04-24T04:53:27;10.60;89.10
360;DHT22;168;48.872;9.226;2023-04-24T04:55:57;10.50;89.90
360;DHT22;168;48.872;9.226;2023-04-24T04:58:25;10.50;89.10
360;DHT22;168;48.872;9.226;2023-04-24T05:00:53;10.50;89.10
360;DHT22;168;48.872;9.226;2023-04-24T05:03:20;10.50;89.20
360;DHT22;168;48.872;9.226;2023-04-24T05:05:49;10.50;88.10
360;DHT22;168;48.872;9.226;2023-04-24T05:08:20;10.60;88.30
360;DHT22;168;48.872;9.226;2023-04-24T05:10:47;10.60;89.30
360;DHT22;168;48.872;9.226;2023-04-24T05:16:50;10.80;90.70
360;DHT22;168;48.872;9.226;2023-04-24T05:19:24;10.70;92.40
360;DHT22;168;48.872;9.226;2023-04-24T05:21:54;10.70;93.20
360;DHT22;168;48.872;9.226;2023-04-24T05:24:29;10.60;92.60
360;DHT22;168;48.872;9.226;2023-04-24T05:26:56;10.60;92.40
360;DHT22;168;48.872;9.226;2023-04-24T05:29:24;10.60;92.00
360;DHT22;168;48.872;9.226;2023-04-24T05:31:52;10.60;94.40
360;DHT22;168;48.872;9.226;2023-04-24T05:34:20;10.60;92.80
360;DHT22;168;48.872;9.226;2023-04-24T05:36:47;10.50;93.50
360;DHT22;168;48.872;9.226;2023-04-24T05:39:16;10.50;92.50
360;DHT22;168;48.872;9.226;2023-04-24T05:41:47;10.50;92.90
360;DHT22;168;48.872;9.226;2023-04-24T05:44:17;10.50;92.20
360;DHT22;168;48.872;9.226;2023-04-24T05:46:46;10.70;92.10
360;DHT22;168;48.872;9.226;2023-04-24T05:49:13;10.70;92.50
360;DHT22;168;48.872;9.226;2023-04-24T05:51:41;10.70;93.30
360;DHT22;168;48.872;9.226;2023-04-24T05:54:08;10.70;93.40
360;DHT22;168;48.872;9.226;2023-04-24T05:56:40;10.80;94.50
360;DHT22;168;48.872;9.226;2023-04-24T05:59:07;10.80;93.80
360;DHT22;168;48.872;9.226;2023-04-24T06:01:35;10.80;94.10
360;DHT22;168;48.872;9.226;2023-04-24T06:04:03;10.80;94.90
360;DHT22;168;48.872;9.226;2023-04-24T06:06:30;10.80;94.70
360;DHT22;168;48.872;9.226;2023-04-24T06:08:58;10.90;94.90
360;DHT22;168;48.872;9.226;2023-04-24T06:11:43;10.90;95.00
360;DHT22;168;48.872;9.226;2023-04-24T06:14:49;10.90;95.40
360;DHT22;168;48.872;9.226;2023-04-24T06:20:26;10.90;95.40
360;DHT22;168;48.872;9.226;2023-04-24T06:22:54;10.80;94.60
360;DHT22;168;48.872;9.226;2023-04-24T06:25:24;10.80;94.90
360;DHT22;168;48.872;9.226;2023-04-24T06:27:52;11.00;95.30
360;DHT22;168;48.872;9.226;2023-04-24T06:30:21;11.10;95.60
360;DHT22;168;48.872;9.226;2023-04-24T06:32:48;11.20;95.90
360;DHT22;168;48.872;9.226;2023-04-24T06:35:15;11.30;95.90
360;DHT22;168;48.872;9.226;2023-04-24T06:37:44;11.50;96.40
360;DHT22;168;48.872;9.226;2023-04-24T06:40:12;11.60;96.60
360;DHT22;168;48.872;9.226;2023-04-24T06:42:42;11.80;97.30
360;DHT22;168;48.872;9.226;2023-04-24T06:45:30;12.00;97.10
360;DHT22;168;48.872;9.226;2023-04-24T06:48:08;12.20;96.90
360;DHT22;168;48.872;9.226;2023-04-24T06:50:38;12.30;96.80
360;DHT22;168;48.872;9.226;2023-04-24T06:53:07;12.50;96.50
360;DHT22;168;48.872;9.226;2023-04-24T06:55:37;12.50;95.90
360;DHT22;168;48.872;9.226;2023-04-24T06:58:05;12.60;95.50
360;DHT22;168;48.872;9.226;2023-04-24T07:00:40;12.60;95.40
360;DHT22;168;48.872;9.226;2023-04-24T07:03:08;12.80;95.30
360;DHT22;168;48.872;9.226;2023-04-24T07:05:36;13.00;95.00
360;DHT22;168;48.872;9.226;2023-04-24T07:08:19;13.20;94.60
360;DHT22;168;48.872;9.226;2023-04-24T07:10:51;13.30;92.20
360;DHT22;168;48.872;9.226;2023-04-24T07:13:28;13.20;93.00
360;DHT22;168;48.872;9.226;2023-04-24T07:15:57;13.10;93.20
360;DHT22;168;48.872;9.226;2023-04-24T07:18:24;13.20;91.20
360;DHT22;168;48.872;9.226;2023-04-24T07:20:52;13.10;91.60
360;DHT22;168;48.872;9.226;2023-04-24T07:23:20;13.00;90.70
360;DHT22;168;48.872;9.226;2023-04-24T07:25:47;12.90;92.20
360;DHT22;168;48.872;9.226;2023-04-24T07:28:15;13.00;91.40
360;DHT22;168;48.872;9.226;2023-04-24T07:30:44;12.90;90.00
360;DHT22;168;48.872;9.226;2023-04-24T07:33:13;12.70;89.60
360;DHT22;168;48.872;9.226;2023-04-24T07:35:40;12.70;90.40
360;DHT22;168;48.872;9.226;2023-04-24T07:38:08;12.60;89.70
360;DHT22;168;48.872;9.226;2023-04-24T07:40:36;12.50;88.30
360;DHT22;168;48.872;9.226;2023-04-24T07:43:05;12.50;88.70
360;DHT22;168;48.872;9.226;2023-04-24T07:45:36;12.60;88.10
360;DHT22;168;48.872;9.226;2023-04-24T07:48:05;12.70;85.80
360;DHT22;168;48.872;9.226;2023-04-24T07:50:38;12.80;86.60
360;DHT22;168;48.872;9.226;2023-04-24T07:53:07;12.90;86.40
360;DHT22;168;48.872;9.226;2023-04-24T07:55:34;13.00;85.90
360;DHT22;168;48.872;9.226;2023-04-24T07:58:01;13.00;84.70
360;DHT22;168;48.872;9.226;2023-04-24T08:00:29;13.00;85.00
360;DHT22;168;48.872;9.226;2023-04-24T08:02:57;13.00;84.60
360;DHT22;168;48.872;9.226;2023-04-24T08:05:24;13.20;84.40
360;DHT22;168;48.872;9.226;2023-04-24T08:07:56;13.30;83.20
360;DHT22;168;48.872;9.226;2023-04-24T08:10:23;13.20;84.70
360;DHT22;168;48.872;9.226;2023-04-24T08:12:51;13.10;84.20
360;DHT22;168;48.872;9.226;2023-04-24T08:15:19;13.00;84.60
360;DHT22;168;48.872;9.226;2023-04-24T08:17:46;12.90;85.60
360;DHT22;168;48.872;9.226;2023-04-24T08:20:14;12.90;86.30
360;DHT22;168;48.872;9.226;2023-04-24T08:22:42;12.80;86.60
360;DHT22;168;48.872;9.226;2023-04-24T08:25:11;12.70;85.90
360;DHT22;168;48.872;9.226;2023-04-24T08:27:38;12.60;86.20
360;DHT22;168;48.872;9.226;2023-04-24T08:30:06;12.50;85.00
360;DHT22;168;48.872;9.226;2023-04-24T08:32:35;12.40;84.90
360;DHT22;168;48.872;9.226;2023-04-24T08:35:03;12.30;83.30
360;DHT22;168;48.872;9.226;2023-04-24T08:37:32;12.10;83.40
360;DHT22;168;48.872;9.226;2023-04-24T08:40:01;12.20;83.00
360;DHT22;168;48.872;9.226;2023-04-24T08:42:30;12.30;81.10
360;DHT22;168;48.872;9.226;2023-04-24T08:44:59;12.40;81.70
360;DHT22;168;48.872;9.226;2023-04-24T08:47:29;12.50;78.50
360;DHT22;168;48.872;9.226;2023-04-24T08:49:57;12.50;77.60
360;DHT22;168;48.872;9.226;2023-04-24T08:52:25;12.40;77.20
360;DHT22;168;48.872;9.226;2023-04-24T08:54:55;12.30;76.50
360;DHT22;168;48.872;9.226;2023-04-24T08:57:30;12.30;76.70
360;DHT22;168;48.872;9.226;2023-04-24T09:00:21;12.50;77.30
360;DHT22;168;48.872;9.226;2023-04-24T09:03:06;12.80;75.90
360;DHT22;168;48.872;9.226;2023-04-24T09:05:33;12.70;73.20
360;DHT22;168;48.872;9.226;2023-04-24T09:08:13;12.70;73.60
360;DHT22;168;48.872;9.226;2023-04-24T09:10:59;12.80;73.40
360;DHT22;168;48.872;9.226;2023-04-24T09:13:38;12.80;74.10
360;DHT22;168;48.872;9.226;2023-04-24T09:16:08;12.90;75.10
360;DHT22;168;48.872;9.226;2023-04-24T09:18:41;13.00;75.10
360;DHT22;168;48.872;9.226;2023-04-24T09:21:15;13.10;75.30
360;DHT22;168;48.872;9.226;2023-04-24T09:23:45;13.30;74.90
360;DHT22;168;48.872;9.226;2023-04-24T09:26:30;13.30;75.20
360;DHT22;168;48.872;9.226;2023-04-24T09:28:59;13.20;75.70
360;DHT22;168;48.872;9.226;2023-04-24T09:31:29;13.20;74.60
360;DHT22;168;48.872;9.226;2023-04-24T09:33:59;13.20;74.20
360;DHT22;168;48.872;9.226;2023-04-24T09:36:29;13.30;74.60
360;DHT22;168;48.872;9.226;2023-04-24T09:38:59;13.40;74.50
360;DHT22;168;48.872;9.226;2023-04-24T09:41:27;13.20;75.00
360;DHT22;168;48.872;9.226;2023-04-24T09:43:55;13.20;77.50
360;DHT22;168;48.872;9.226;2023-04-24T09:46:31;13.30;76.80
360;DHT22;168;48.872;9.226;2023-04-24T09:49:07;13.40;76.70
360;DHT22;168;48.872;9.226;2023-04-24T09:51:37;13.70;76.70
360;DHT22;168;48.872;9.226;2023-04-24T09:54:13;14.10;73.90
360;DHT22;168;48.872;9.226;2023-04-24T09:56:43;14.20;73.40
360;DHT22;168;48.872;9.226;2023-04-24T09:59:12;14.20;73.40
360;DHT22;168;48.872;9.226;2023-04-24T10:01:42;14.20;73.00
360;DHT22;168;48.872;9.226;2023-04-24T10:04:18;14.00;72.60
360;DHT22;168;48.872;9.226;2023-04-24T10:06:46;13.60;72.50
360;DHT22;168;48.872;9.226;2023-04-24T10:09:15;13.40;73.60
360;DHT22;168;48.872;9.226;2023-04-24T10:11:44;13.40;75.30
360;DHT22;168;48.872;9.226;2023-04-24T10:14:13;13.50;72.80
360;DHT22;168;48.872;9.226;2023-04-24T10:16:43;13.50;73.00
360;DHT22;168;48.872;9.226;2023-04-24T10:19:13;13.70;72.60
360;DHT22;168;48.872;9.226;2023-04-24T10:21:43;13.80;73.70
360;DHT22;168;48.872;9.226;2023-04-24T10:24:12;14.00;71.30
360;DHT22;168;48.872;9.226;2023-04-24T10:26:41;14.00;70.70
360;DHT22;168;48.872;9.226;2023-04-24T10:29:10;13.80;71.70
360;DHT22;168;48.872;9.226;2023-04-24T10:31:39;13.50;70.80
360;DHT22;168;48.872;9.226;2023-04-24T10:34:09;13.20;71.30
360;DHT22;168;48.872;9.226;2023-04-24T10:36:39;12.90;71.00
360;DHT22;168;48.872;9.226;2023-04-24T10:39:10;12.80;72.40
360;DHT22;168;48.872;9.226;2023-04-24T10:41:39;12.60;72.90
360;DHT22;168;48.872;9.226;2023-04-24T10:44:07;12.50;73.70
360;DHT22;168;48.872;9.226;2023-04-24T10:46:36;12.50;74.30
360;DHT22;168;48.872;9.226;2023-04-24T10:49:04;12.50;73.80
360;DHT22;168;48.872;9.226;2023-04-24T10:51:50;12.50;74.50
360;DHT22;168;48.872;9.226;2023-04-24T10:54:23;12.50;74.70
360;DHT22;168;48.872;9.226;2023-04-24T10:56:51;12.60;75.10
360;DHT22;168;48.872;9.226;2023-04-24T10:59:25;12.70;73.30
360;DHT22;168;48.872;9.226;2023-04-24T11:01:54;12.70;73.20
360;DHT22;168;48.872;9.226;2023-04-24T11:04:32;12.80;73.20
360;DHT22;168;48.872;9.226;2023-04-24T11:07:03;13.00;73.60
360;DHT22;168;48.872;9.226;2023-04-24T11:09:31;13.20;72.60
360;DHT22;168;48.872;9.226;2023-04-24T11:12:06;13.20;72.40
360;DHT22;168;48.872;9.226;2023-04-24T11:14:59;13.40;72.20
360;DHT22;168;48.872;9.226;2023-04-24T11:17:29;13.50;71.80
360;DHT22;168;48.872;9.226;2023-04-24T11:20:01;13.40;72.10
360;DHT22;168;48.872;9.226;2023-04-24T11:22:33;13.30;72.90
360;DHT22;168;48.872;9.226;2023-04-24T11:25:04;13.30;73.20
360;DHT22;168;48.872;9.226;2023-04-24T11:27:40;13.20;71.50
360;DHT22;168;48.872;9.226;2023-04-24T11:30:09;13.30;72.00
360;DHT22;168;48.872;9.226;2023-04-24T11:32:38;13.50;72.20
360;DHT22;168;48.872;9.226;2023-04-24T11:38:48;14.10;70.20
360;DHT22;168;48.872;9.226;2023-04-24T11:41:28;14.00;69.50
360;DHT22;168;48.872;9.226;2023-04-24T11:44:11;14.00;69.80
360;DHT22;168;48.872;9.226;2023-04-24T11:46:56;13.80;69.70
360;DHT22;168;48.872;9.226;2023-04-24T11:49:28;13.60;70.50
360;DHT22;168;48.872;9.226;2023-04-24T11:51:57;13.50;71.70
360;DHT22;168;48.872;9.226;2023-04-24T11:54:27;13.30;74.30
360;DHT22;168;48.872;9.226;2023-04-24T11:56:55;13.30;77.80
360;DHT22;168;48.872;9.226;2023-04-24T11:59:23;13.10;78.10
360;DHT22;168;48.872;9.226;2023-04-24T12:01:51;13.20;78.50
360;DHT22;168;48.872;9.226;2023-04-24T12:04:19;13.50;76.80
360;DHT22;168;48.872;9.226;2023-04-24T12:07:02;13.80;76.00
360;DHT22;168;48.872;9.226;2023-04-24T12:09:42;14.00;72.90
360;DHT22;168;48.872;9.226;2023-04-24T12:12:11;13.70;69.50
360;DHT22;168;48.872;9.226;2023-04-24T12:14:47;13.60;70.40
360;DHT22;168;48.872;9.226;2023-04-24T12:17:14;13.80;70.80
360;DHT22;168;48.872;9.226;2023-04-24T12:19:46;13.90;71.00
360;DHT22;168;48.872;9.226;2023-04-24T12:22:14;13.90;71.60
360;DHT22;168;48.872;9.226;2023-04-24T12:25:00;14.00;72.10
360;DHT22;168;48.872;9.226;2023-04-24T12:27:31;14.00;73.70
360;DHT22;168;48.872;9.226;2023-04-24T12:30:01;13.80;74.00
360;DHT22;168;48.872;9.226;2023-04-24T12:32:29;13.70;74.50
360;DHT22;168;48.872;9.226;2023-04-24T12:34:57;13.60;75.40
360;DHT22;168;48.872;9.226;2023-04-24T12:37:26;13.60;73.50
360;DHT22;168;48.872;9.226;2023-04-24T12:40:02;13.60;72.30
360;DHT22;168;48.872;9.226;2023-04-24T12:42:30;13.50;73.50
360;DHT22;168;48.872;9.226;2023-04-24T12:44:59;13.40;74.00
360;DHT22;168;48.872;9.226;2023-04-24T12:47:27;13.50;74.10
360;DHT22;168;48.872;9.226;2023-04-24T12:49:55;13.60;73.70
360;DHT22;168;48.872;9.226;2023-04-24T12:52:23;13.60;73.10
360;DHT22;168;48.872;9.226;2023-04-24T12:54:53;13.70;72.80
360;DHT22;168;48.872;9.226;2023-04-24T12:57:22;13.80;72.70
360;DHT22;168;48.872;9.226;2023-04-24T12:59:50;13.80;73.00
360;DHT22;168;48.872;9.226;2023-04-24T13:02:17;13.50;74.00
360;DHT22;168;48.872;9.226;2023-04-24T13:04:45;13.30;75.20
360;DHT22;168;48.872;9.226;2023-04-24T13:07:13;13.00;76.80
360;DHT22;168;48.872;9.226;2023-04-24T13:09:41;12.80;81.30
360;DHT22;168;48.872;9.226;2023-04-24T13:12:09;12.80;83.80
360;DHT22;168;48.872;9.226;2023-04-24T13:14:38;12.90;84.30
360;DHT22;168;48.872;9.226;2023-04-24T13:17:06;13.10;82.50
360;DHT22;168;48.872;9.226;2023-04-24T13:19:39;13.30;80.90
360;DHT22;168;48.872;9.226;2023-04-24T13:22:09;13.40;81.10
360;DHT22;168;48.872;9.226;2023-04-24T13:24:37;13.70;77.70
360;DHT22;168;48.872;9.226;2023-04-24T13:27:05;13.90;76.30
360;DHT22;168;48.872;9.226;2023-04-24T13:29:33;13.80;75.70
360;DHT22;168;48.872;9.226;2023-04-24T13:32:02;13.70;76.10
360;DHT22;168;48.872;9.226;2023-04-24T13:34:30;13.60;76.00
360;DHT22;168;48.872;9.226;2023-04-24T13:36:58;13.30;76.00
360;DHT22;168;48.872;9.226;2023-04-24T13:39:26;13.30;76.30
360;DHT22;168;48.872;9.226;2023-04-24T13:41:53;13.40;76.60
360;DHT22;168;48.872;9.226;2023-04-24T13:44:22;13.60;76.50
360;DHT22;168;48.872;9.226;2023-04-24T13:46:52;13.70;75.40
360;DHT22;168;48.872;9.226;2023-04-24T13:49:22;13.60;74.70
360;DHT22;168;48.872;9.226;2023-04-24T13:51:56;13.60;75.30
360;DHT22;168;48.872;9.226;2023-04-24T13:54:24;13.50;76.40
360;DHT22;168;48.872;9.226;2023-04-24T13:56:52;13.40;77.40
360;DHT22;168;48.872;9.226;2023-04-24T13:59:23;13.50;77.70
360;DHT22;168;48.872;9.226;2023-04-24T14:01:51;13.40;77.00
360;DHT22;168;48.872;9.226;2023-04-24T14:04:18;13.30;77.50
360;DHT22;168;48.872;9.226;2023-04-24T14:06:47;13.30;77.60
360;DHT22;168;48.872;9.226;2023-04-24T14:09:15;13.20;77.20
360;DHT22;168;48.872;9.226;2023-04-24T14:11:42;13.20;77.90
360;DHT22;168;48.872;9.226;2023-04-24T14:14:10;13.30;78.30
360;DHT22;168;48.872;9.226;2023-04-24T14:16:37;13.40;78.20
360;DHT22;168;48.872;9.226;2023-04-24T14:19:05;13.50;78.90
360;DHT22;168;48.872;9.226;2023-04-24T14:21:32;13.70;78.40
360;DHT22;168;48.872;9.226;2023-04-24T14:24:02;13.80;77.50
360;DHT22;168;48.872;9.226;2023-04-24T14:26:29;13.80;76.40
360;DHT22;168;48.872;9.226;2023-04-24T14:28:58;13.90;76.90
360;DHT22;168;48.872;9.226;2023-04-24T14:31:25;13.80;76.30
360;DHT22;168;48.872;9.226;2023-04-24T14:33:53;13.90;75.50
360;DHT22;168;48.872;9.226;2023-04-24T14:36:20;14.10;76.30
360;DHT22;168;48.872;9.226;2023-04-24T14:38:47;14.30;75.60
360;DHT22;168;48.872;9.226;2023-04-24T14:41:16;14.40;74.50
360;DHT22;168;48.872;9.226;2023-04-24T14:43:44;14.60;73.10
360;DHT22;168;48.872;9.226;2023-04-24T14:46:12;14.40;72.30
360;DHT22;168;48.872;9.226;2023-04-24T14:48:39;14.30;72.50
360;DHT22;168;48.872;9.226;2023-04-24T14:51:07;14.30;72.00
360;DHT22;168;48.872;9.226;2023-04-24T14:53:34;14.30;73.50
360;DHT22;168;48.872;9.226;2023-04-24T14:56:01;14.50;73.60
360;DHT22;168;48.872;9.226;2023-04-24T14:58:30;14.40;72.50
360;DHT22;168;48.872;9.226;2023-04-24T15:00:58;14.40;73.00
360;DHT22;168;48.872;9.226;2023-04-24T15:03:25;14.40;70.90
360;DHT22;168;48.872;9.226;2023-04-24T15:05:53;14.30;70.70
360;DHT22;168;48.872;9.226;2023-04-24T15:08:21;14.20;70.40
360;DHT22;168;48.872;9.226;2023-04-24T15:10:49;14.20;70.40
360;DHT22;168;48.872;9.226;2023-04-24T15:13:16;14.30;69.00
360;DHT22;168;48.872;9.226;2023-04-24T15:15:46;14.60;68.70
360;DHT22;168;48.872;9.226;2023-04-24T15:18:14;14.80;67.60
360;DHT22;168;48.872;9.226;2023-04-24T15:20:42;14.70;68.80
360;DHT22;168;48.872;9.226;2023-04-24T15:23:09;14.50;69.30
360;DHT22;168;48.872;9.226;2023-04-24T15:25:37;14.40;70.50
360;DHT22;168;48.872;9.226;2023-04-24T15:28:05;14.30;70.90
360;DHT22;168;48.872;9.226;2023-04-24T15:30:33;14.30;70.90
360;DHT22;168;48.872;9.226;2023-04-24T15:33:01;14.10;70.90
360;DHT22;168;48.872;9.226;2023-04-24T15:35:29;13.90;72.20
360;DHT22;168;48.872;9.226;2023-04-24T15:37:57;13.90;71.90
360;DHT22;168;48.872;9.226;2023-04-24T15:40:25;13.80;71.50
360;DHT22;168;48.872;9.226;2023-04-24T15:42:53;13.70;72.00
360;DHT22;168;48.872;9.226;2023-04-24T15:45:21;13.70;73.20
360;DHT22;168;48.872;9.226;2023-04-24T15:47:49;14.00;72.70
360;DHT22;168;48.872;9.226;2023-04-24T15:50:18;14.10;71.30
360;DHT22;168;48.872;9.226;2023-04-24T15:52:47;14.10;72.00
360;DHT22;168;48.872;9.226;2023-04-24T15:55:15;14.10;72.40
360;DHT22;168;48.872;9.226;2023-04-24T15:57:42;14.10;72.80
360;DHT22;168;48.872;9.226;2023-04-24T16:00:11;14.30;74.10
360;DHT22;168;48.872;9.226;2023-04-24T16:02:38;14.70;73.80
360;DHT22;168;48.872;9.226;2023-04-24T16:05:06;15.10;71.80
360;DHT22;168;48.872;9.226;2023-04-24T16:07:37;15.50;71.20
360;DHT22;168;48.872;9.226;2023-04-24T16:10:05;15.90;69.80
360;DHT22;168;48.872;9.226;2023-04-24T16:12:33;16.20;67.90
360;DHT22;168;48.872;9.226;2023-04-24T16:15:05;16.50;67.20
360;DHT22;168;48.872;9.226;2023-04-24T16:17:32;16.60;66.50
360;DHT22;168;48.872;9.226;2023-04-24T16:20:07;16.80;66.40
360;DHT22;168;48.872;9.226;2023-04-24T16:22:37;17.00;65.20
360;DHT22;168;48.872;9.226;2023-04-24T16:25:05;17.40;65.10
360;DHT22;168;48.872;9.226;2023-04-24T16:27:33;17.40;63.50
360;DHT22;168;48.872;9.226;2023-04-24T16:30:00;17.30;63.30
360;DHT22;168;48.872;9.226;2023-04-24T16:32:29;17.30;63.20
360;DHT22;168;48.872;9.226;2023-04-24T16:34:57;17.10;63.10
360;DHT22;168;48.872;9.226;2023-04-24T16:37:25;16.90;63.80
360;DHT22;168;48.872;9.226;2023-04-24T16:39:57;16.60;64.40
360;DHT22;168;48.872;9.226;2023-04-24T16:42:24;16.40;65.30
360;DHT22;168;48.872;9.226;2023-04-24T16:44:52;16.10;65.50
360;DHT22;168;48.872;9.226;2023-04-24T16:47:34;15.90;65.40
360;DHT22;168;48.872;9.226;2023-04-24T16:50:13;15.40;65.60
360;DHT22;168;48.872;9.226;2023-04-24T16:52:41;15.10;65.90
360;DHT22;168;48.872;9.226;2023-04-24T16:56:20;14.90;66.70
360;DHT22;168;48.872;9.226;2023-04-24T16:58:08;14.80;67.40
360;DHT22;168;48.872;9.226;2023-04-24T17:00:41;14.40;68.10